sensor_id;sensor_type;location;lat;lon;timestamp;temperature;humidity
73939;DHT22;62291;47.554;8.504;2023-05-18T00:01:47;8.00;99.90
73939;DHT22;62291;47.554;8.504;2023-05-18T00:04:12;8.00;99.90
73939;DHT22;62291;47.554;8.504;2023-05-18T00:06:38;7.90;99.90
73939;DHT22;62291;47.554;8.504;2023-05-18T00:09:04;7.90;99.90
73939;DHT22;62291;47.554;8.504;2023-05-18T00:11:29;7.80;99.90
73939;DHT22;62291;47.554;8.504;2023-05-18T00:13:55;7.70;99.90
73939;DHT22;62291;47.554;8.504;2023-05-18T00:16:20;7.70;99.90
73939;DHT22;62291;47.554;8.504;2023-05-18T00:18:46;7.70;99.90
73939;DHT22;62291;47.554;8.504;2023-05-18T00:21:11;7.70;99.90
73939;DHT22;62291;47.554;8.504;2023-05-18T00:23:37;7.70;99.90
73939;DHT22;62291;47.554;8.504;2023-05-18T00:26:03;7.60;99.90
73939;DHT22;62291;47.554;8.504;2023-05-18T00:28:29;7.60;99.90
73939;DHT22;62291;47.554;8.504;2023-05-18T00:30:55;7.50;99.90
73939;DHT22;62291;47.554;8.504;2023-05-18T00:33:21;7.50;99.90
73939;DHT22;62291;47.554;8.504;2023-05-18T00:35:46;7.40;99.90
73939;DHT22;62291;47.554;8.504;2023-05-18T00:38:12;7.40;99.90
73939;DHT22;62291;47.554;8.504;2023-05-18T00:40:41;7.40;99.90
73939;DHT22;62291;47.554;8.504;2023-05-18T00:43:06;7.40;99.90
73939;DHT22;62291;47.554;8.504;2023-05-18T00:45:32;7.40;99.90
73939;DHT22;62291;47.554;8.504;2023-05-18T00:47:57;7.40;99.90
73939;DHT22;62291;47.554;8.504;2023-05-18T00:50:24;7.40;99.90
73939;DHT22;62291;47.554;8.504;2023-05-18T00:52:49;7.40;99.90
73939;DHT22;62291;47.554;8.504;2023-05-18T00:55:16;7.30;99.90
73939;DHT22;62291;47.554;8.504;2023-05-18T00:57:42;7.30;99.90
73939;DHT22;62291;47.554;8.504;2023-05-18T01:00:10;7.20;99.90
73939;DHT22;62291;47.554;8.504;2023-05-18T01:02:40;7.20;99.90
73939;DHT22;62291;47.554;8.504;2023-05-18T01:05:10;7.20;99.90
73939;DHT22;62291;47.554;8.504;2023-05-18T01:07:37;7.20;99.90
73939;DHT22;62291;47.554;8.504;2023-05-18T01:10:04;7.20;99.90
73939;DHT22;62291;47.554;8.504;2023-05-18T01:15:14;7.00;99.90
73939;DHT22;62291;47.554;8.504;2023-05-18T01:25:44;7.00;99.90
73939;DHT22;62291;47.554;8.504;2023-05-18T01:28:13;7.00;99.90
73939;DHT22;62291;47.554;8.504;2023-05-18T01:30:41;7.00;99.90
73939;DHT22;62291;47.554;8.504;2023-05-18T01:33:07;7.10;99.90
73939;DHT22;62291;47.554;8.504;2023-05-18T01:35:34;7.00;99.90
73939;DHT22;62291;47.554;8.504;2023-05-18T01:38:00;7.10;99.90
73939;DHT22;62291;47.554;8.504;2023-05-18T01:40:25;7.10;99.90
73939;DHT22;62291;47.554;8.504;2023-05-18T01:42:54;7.20;99.90
73939;DHT22;62291;47.554;8.504;2023-05-18T01:45:21;7.20;99.90
73939;DHT22;62291;47.554;8.504;2023-05-18T01:47:50;7.20;99.90
73939;DHT22;62291;47.554;8.504;2023-05-18T01:50:21;7.20;99.90
73939;DHT22;62291;47.554;8.504;2023-05-18T01:55:16;7.10;99.90
73939;DHT22;62291;47.554;8.504;2023-05-18T01:57:43;7.10;99.90
73939;DHT22;62291;47.554;8.504;2023-05-18T02:00:09;7.10;99.90
73939;DHT22;62291;47.554;8.504;2023-05-18T02:02:35;7.10;99.90
73939;DHT22;62291;47.554;8.504;2023-05-18T02:05:01;7.10;99.90
73939;DHT22;62291;47.554;8.504;2023-05-18T02:07:26;7.10;99.90
73939;DHT22;62291;47.554;8.504;2023-05-18T02:09:52;7.10;99.90
73939;DHT22;62291;47.554;8.504;2023-05-18T02:12:17;7.00;99.90
73939;DHT22;62291;47.554;8.504;2023-05-18T02:14:43;7.00;99.90
73939;DHT22;62291;47.554;8.504;2023-05-18T02:17:08;7.00;99.90
73939;DHT22;62291;47.554;8.504;2023-05-18T02:19:34;6.90;99.90
73939;DHT22;62291;47.554;8.504;2023-05-18T02:22:03;6.90;99.90
73939;DHT22;62291;47.554;8.504;2023-05-18T02:24:30;6.90;99.90
73939;DHT22;62291;47.554;8.504;2023-05-18T02:26:55;6.90;99.90
73939;DHT22;62291;47.554;8.504;2023-05-18T02:29:21;7.00;99.90
73939;DHT22;62291;47.554;8.504;2023-05-18T02:31:46;7.00;99.90
73939;DHT22;62291;47.554;8.504;2023-05-18T02:34:12;7.10;99.90
73939;DHT22;62291;47.554;8.504;2023-05-18T02:36:39;7.10;99.90
73939;DHT22;62291;47.554;8.504;2023-05-18T02:39:07;7.10;99.90
73939;DHT22;62291;47.554;8.504;2023-05-18T02:41:32;7.10;99.90
73939;DHT22;62291;47.554;8.504;2023-05-18T02:43:58;7.10;99.90
73939;DHT22;62291;47.554;8.504;2023-05-18T02:46:24;7.10;99.90
73939;DHT22;62291;47.554;8.504;2023-05-18T02:48:50;7.00;99.90
73939;DHT22;62291;47.554;8.504;2023-05-18T02:51:15;7.00;99.90
73939;DHT22;62291;47.554;8.504;2023-05-18T02:53:41;7.00;99.90
73939;DHT22;62291;47.554;8.504;2023-05-18T02:56:09;7.00;99.90
73939;DHT22;62291;47.554;8.504;2023-05-18T02:58:36;6.90;99.90
73939;DHT22;62291;47.554;8.504;2023-05-18T03:01:03;7.00;99.90
73939;DHT22;62291;47.554;8.504;2023-05-18T03:03:32;6.90;99.90
73939;DHT22;62291;47.554;8.504;2023-05-18T03:05:59;6.90;99.90
73939;DHT22;62291;47.554;8.504;2023-05-18T03:08:24;6.90;99.90
73939;DHT22;62291;47.554;8.504;2023-05-18T03:10:51;6.90;99.90
73939;DHT22;62291;47.554;8.504;2023-05-18T03:13:17;6.90;99.90
73939;DHT22;62291;47.554;8.504;2023-05-18T03:15:42;6.90;99.90
73939;DHT22;62291;47.554;8.504;2023-05-18T03:18:10;6.90;99.90
73939;DHT22;62291;47.554;8.504;2023-05-18T03:20:35;6.90;99.90
73939;DHT22;62291;47.554;8.504;2023-05-18T03:23:02;6.90;99.90
73939;DHT22;62291;47.554;8.504;2023-05-18T03:25:28;6.90;99.90
73939;DHT22;62291;47.554;8.504;2023-05-18T03:27:54;6.80;99.90
73939;DHT22;62291;47.554;8.504;2023-05-18T03:30:20;6.90;99.90
73939;DHT22;62291;47.554;8.504;2023-05-18T03:32:46;6.80;99.90
73939;DHT22;62291;47.554;8.504;2023-05-18T03:35:12;6.90;99.90
73939;DHT22;62291;47.554;8.504;2023-05-18T03:37:37;6.90;99.90
73939;DHT22;62291;47.554;8.504;2023-05-18T03:40:11;6.90;99.90
73939;DHT22;62291;47.554;8.504;2023-05-18T03:42:37;6.90;99.90
73939;DHT22;62291;47.554;8.504;2023-05-18T03:45:03;6.90;99.90
73939;DHT22;62291;47.554;8.504;2023-05-18T03:47:28;6.90;99.90
73939;DHT22;62291;47.554;8.504;2023-05-18T03:49:54;6.90;99.90
73939;DHT22;62291;47.554;8.504;2023-05-18T03:52:20;6.90;99.90
73939;DHT22;62291;47.554;8.504;2023-05-18T03:54:47;7.00;99.90
73939;DHT22;62291;47.554;8.504;2023-05-18T03:57:13;7.00;99.90
73939;DHT22;62291;47.554;8.504;2023-05-18T03:59:39;7.10;99.90
73939;DHT22;62291;47.554;8.504;2023-05-18T04:02:04;7.10;99.90
73939;DHT22;62291;47.554;8.504;2023-05-18T04:04:30;7.10;99.90
73939;DHT22;62291;47.554;8.504;2023-05-18T04:06:56;7.10;99.90
73939;DHT22;62291;47.554;8.504;2023-05-18T04:09:22;7.20;99.90
73939;DHT22;62291;47.554;8.504;2023-05-18T04:11:48;7.30;99.90
73939;DHT22;62291;47.554;8.504;2023-05-18T04:14:13;7.30;99.90
73939;DHT22;62291;47.554;8.504;2023-05-18T04:16:39;7.30;99.90
73939;DHT22;62291;47.554;8.504;2023-05-18T04:19:05;7.30;99.90
73939;DHT22;62291;47.554;8.504;2023-05-18T04:21:31;7.40;99.90
73939;DHT22;62291;47.554;8.504;2023-05-18T04:24:01;7.50;99.90
73939;DHT22;62291;47.554;8.504;2023-05-18T04:26:32;7.80;99.90
73939;DHT22;62291;47.554;8.504;2023-05-18T04:28:57;8.10;99.90
73939;DHT22;62291;47.554;8.504;2023-05-18T04:31:25;8.40;99.90
73939;DHT22;62291;47.554;8.504;2023-05-18T04:33:50;8.70;99.90
73939;DHT22;62291;47.554;8.504;2023-05-18T04:36:16;8.90;99.90
73939;DHT22;62291;47.554;8.504;2023-05-18T04:38:44;9.20;99.90
73939;DHT22;62291;47.554;8.504;2023-05-18T04:41:10;9.70;99.90
73939;DHT22;62291;47.554;8.504;2023-05-18T04:43:36;9.80;99.90
73939;DHT22;62291;47.554;8.504;2023-05-18T04:46:02;9.90;99.90
73939;DHT22;62291;47.554;8.504;2023-05-18T04:48:29;10.00;99.90
73939;DHT22;62291;47.554;8.504;2023-05-18T04:50:54;10.20;99.90
73939;DHT22;62291;47.554;8.504;2023-05-18T04:53:20;10.50;99.90
73939;DHT22;62291;47.554;8.504;2023-05-18T04:55:51;10.70;99.90
73939;DHT22;62291;47.554;8.504;2023-05-18T04:58:17;10.90;99.90
73939;DHT22;62291;47.554;8.504;2023-05-18T05:00:43;11.00;99.90
73939;DHT22;62291;47.554;8.504;2023-05-18T05:03:08;11.50;99.90
73939;DHT22;62291;47.554;8.504;2023-05-18T05:05:34;11.70;99.90
73939;DHT22;62291;47.554;8.504;2023-05-18T05:08:00;11.80;99.90
73939;DHT22;62291;47.554;8.504;2023-05-18T05:10:25;12.10;99.90
73939;DHT22;62291;47.554;8.504;2023-05-18T05:12:52;12.20;99.90
73939;DHT22;62291;47.554;8.504;2023-05-18T05:15:18;12.40;99.90
73939;DHT22;62291;47.554;8.504;2023-05-18T05:17:47;12.60;99.90
73939;DHT22;62291;47.554;8.504;2023-05-18T05:20:13;12.80;99.50
73939;DHT22;62291;47.554;8.504;2023-05-18T05:22:38;12.40;99.40
73939;DHT22;62291;47.554;8.504;2023-05-18T05:25:04;12.60;99.40
73939;DHT22;62291;47.554;8.504;2023-05-18T05:27:29;12.90;99.50
73939;DHT22;62291;47.554;8.504;2023-05-18T05:29:55;13.40;98.50
73939;DHT22;62291;47.554;8.504;2023-05-18T05:32:21;13.70;97.90
73939;DHT22;62291;47.554;8.504;2023-05-18T05:34:46;14.20;97.90
73939;DHT22;62291;47.554;8.504;2023-05-18T05:37:14;14.70;97.40
73939;DHT22;62291;47.554;8.504;2023-05-18T05:39:40;14.70;95.10
73939;DHT22;62291;47.554;8.504;2023-05-18T05:42:06;14.70;96.30
73939;DHT22;62291;47.554;8.504;2023-05-18T05:44:32;14.70;95.50
73939;DHT22;62291;47.554;8.504;2023-05-18T05:46:58;15.10;95.40
73939;DHT22;62291;47.554;8.504;2023-05-18T05:49:24;15.20;95.10
73939;DHT22;62291;47.554;8.504;2023-05-18T05:51:49;14.60;95.20
73939;DHT22;62291;47.554;8.504;2023-05-18T05:54:15;15.00;95.60
73939;DHT22;62291;47.554;8.504;2023-05-18T05:56:40;15.10;93.70
73939;DHT22;62291;47.554;8.504;2023-05-18T05:59:07;14.80;93.90
73939;DHT22;62291;47.554;8.504;2023-05-18T06:01:33;15.00;94.70
73939;DHT22;62291;47.554;8.504;2023-05-18T06:03:59;14.80;94.10
73939;DHT22;62291;47.554;8.504;2023-05-18T06:06:25;15.40;94.50
73939;DHT22;62291;47.554;8.504;2023-05-18T06:08:50;15.90;92.90
73939;DHT22;62291;47.554;8.504;2023-05-18T06:11:16;15.90;93.30
73939;DHT22;62291;47.554;8.504;2023-05-18T06:13:42;15.30;93.10
73939;DHT22;62291;47.554;8.504;2023-05-18T06:16:07;15.20;94.60
73939;DHT22;62291;47.554;8.504;2023-05-18T06:18:33;14.80;95.10
73939;DHT22;62291;47.554;8.504;2023-05-18T06:20:59;14.60;94.90
73939;DHT22;62291;47.554;8.504;2023-05-18T06:23:25;14.40;94.30
73939;DHT22;62291;47.554;8.504;2023-05-18T06:25:50;14.10;95.20
73939;DHT22;62291;47.554;8.504;2023-05-18T06:28:16;13.70;95.50
73939;DHT22;62291;47.554;8.504;2023-05-18T06:30:42;13.60;95.80
73939;DHT22;62291;47.554;8.504;2023-05-18T06:33:08;13.40;96.30
73939;DHT22;62291;47.554;8.504;2023-05-18T06:35:34;13.90;96.80
73939;DHT22;62291;47.554;8.504;2023-05-18T06:38:00;14.10;95.30
73939;DHT22;62291;47.554;8.504;2023-05-18T06:40:25;14.40;95.70
73939;DHT22;62291;47.554;8.504;2023-05-18T06:42:51;14.20;94.90
73939;DHT22;62291;47.554;8.504;2023-05-18T06:45:16;14.20;95.50
73939;DHT22;62291;47.554;8.504;2023-05-18T06:47:46;14.50;94.30
73939;DHT22;62291;47.554;8.504;2023-05-18T06:50:12;14.50;95.00
73939;DHT22;62291;47.554;8.504;2023-05-18T06:52:38;14.90;94.50
73939;DHT22;62291;47.554;8.504;2023-05-18T06:55:03;15.50;94.60
73939;DHT22;62291;47.554;8.504;2023-05-18T06:57:29;14.90;93.90
73939;DHT22;62291;47.554;8.504;2023-05-18T06:59:56;14.80;94.40
73939;DHT22;62291;47.554;8.504;2023-05-18T07:02:21;14.30;95.10
73939;DHT22;62291;47.554;8.504;2023-05-18T07:04:47;14.80;95.30
73939;DHT22;62291;47.554;8.504;2023-05-18T07:07:13;15.70;94.20
73939;DHT22;62291;47.554;8.504;2023-05-18T07:09:39;16.00;93.30
73939;DHT22;62291;47.554;8.504;2023-05-18T07:12:07;16.60;92.20
73939;DHT22;62291;47.554;8.504;2023-05-18T07:14:37;17.30;93.10
73939;DHT22;62291;47.554;8.504;2023-05-18T07:17:03;18.20;89.60
73939;DHT22;62291;47.554;8.504;2023-05-18T07:19:28;18.10;87.80
73939;DHT22;62291;47.554;8.504;2023-05-18T07:21:54;17.60;90.00
73939;DHT22;62291;47.554;8.504;2023-05-18T07:24:21;17.90;89.80
73939;DHT22;62291;47.554;8.504;2023-05-18T07:26:46;17.20;90.90
73939;DHT22;62291;47.554;8.504;2023-05-18T07:29:12;17.80;91.80
73939;DHT22;62291;47.554;8.504;2023-05-18T07:31:39;17.40;88.90
73939;DHT22;62291;47.554;8.504;2023-05-18T07:34:05;16.60;90.50
73939;DHT22;62291;47.554;8.504;2023-05-18T07:36:31;16.60;91.40
73939;DHT22;62291;47.554;8.504;2023-05-18T07:38:57;17.00;91.00
73939;DHT22;62291;47.554;8.504;2023-05-18T07:41:23;17.30;92.50
73939;DHT22;62291;47.554;8.504;2023-05-18T07:43:49;17.60;90.50
73939;DHT22;62291;47.554;8.504;2023-05-18T07:46:15;17.70;91.40
73939;DHT22;62291;47.554;8.504;2023-05-18T07:48:40;17.40;90.60
73939;DHT22;62291;47.554;8.504;2023-05-18T07:51:06;17.20;91.00
73939;DHT22;62291;47.554;8.504;2023-05-18T07:53:32;17.90;90.60
73939;DHT22;62291;47.554;8.504;2023-05-18T07:55:58;18.00;89.90
73939;DHT22;62291;47.554;8.504;2023-05-18T07:58:24;18.10;89.50
73939;DHT22;62291;47.554;8.504;2023-05-18T08:00:50;17.50;90.60
73939;DHT22;62291;47.554;8.504;2023-05-18T08:03:16;17.70;90.20
73939;DHT22;62291;47.554;8.504;2023-05-18T08:05:42;17.50;92.00
73939;DHT22;62291;47.554;8.504;2023-05-18T08:08:08;18.50;90.10
73939;DHT22;62291;47.554;8.504;2023-05-18T08:10:36;18.60;90.30
73939;DHT22;62291;47.554;8.504;2023-05-18T08:13:02;18.60;90.30
73939;DHT22;62291;47.554;8.504;2023-05-18T08:15:27;18.10;91.50
73939;DHT22;62291;47.554;8.504;2023-05-18T08:17:53;17.80;91.20
73939;DHT22;62291;47.554;8.504;2023-05-18T08:20:19;17.20;90.90
73939;DHT22;62291;47.554;8.504;2023-05-18T08:22:45;16.00;92.40
73939;DHT22;62291;47.554;8.504;2023-05-18T08:25:10;15.80;93.10
73939;DHT22;62291;47.554;8.504;2023-05-18T08:27:36;16.70;93.10
73939;DHT22;62291;47.554;8.504;2023-05-18T08:30:01;17.60;92.50
73939;DHT22;62291;47.554;8.504;2023-05-18T08:32:27;18.20;91.10
73939;DHT22;62291;47.554;8.504;2023-05-18T08:34:52;18.60;89.70
73939;DHT22;62291;47.554;8.504;2023-05-18T08:37:18;18.40;88.80
73939;DHT22;62291;47.554;8.504;2023-05-18T08:39:44;17.70;91.20
73939;DHT22;62291;47.554;8.504;2023-05-18T08:42:24;17.60;91.50
73939;DHT22;62291;47.554;8.504;2023-05-18T08:45:00;17.80;91.60
73939;DHT22;62291;47.554;8.504;2023-05-18T08:47:27;17.60;91.60
73939;DHT22;62291;47.554;8.504;2023-05-18T08:49:54;17.00;91.80
73939;DHT22;62291;47.554;8.504;2023-05-18T08:52:21;16.60;92.10
73939;DHT22;62291;47.554;8.504;2023-05-18T08:54:48;16.00;94.00
73939;DHT22;62291;47.554;8.504;2023-05-18T08:57:14;15.80;93.60
73939;DHT22;62291;47.554;8.504;2023-05-18T08:59:41;15.80;94.90
73939;DHT22;62291;47.554;8.504;2023-05-18T09:02:08;15.90;96.10
73939;DHT22;62291;47.554;8.504;2023-05-18T09:04:34;15.60;94.10
73939;DHT22;62291;47.554;8.504;2023-05-18T09:07:00;15.40;95.70
73939;DHT22;62291;47.554;8.504;2023-05-18T09:09:27;15.50;94.90
73939;DHT22;62291;47.554;8.504;2023-05-18T09:11:53;15.60;94.50
73939;DHT22;62291;47.554;8.504;2023-05-18T09:14:20;15.40;95.20
73939;DHT22;62291;47.554;8.504;2023-05-18T09:16:51;15.20;94.80
73939;DHT22;62291;47.554;8.504;2023-05-18T09:19:16;15.00;95.50
73939;DHT22;62291;47.554;8.504;2023-05-18T09:21:42;14.70;95.80
73939;DHT22;62291;47.554;8.504;2023-05-18T09:24:07;14.70;96.10
73939;DHT22;62291;47.554;8.504;2023-05-18T09:26:33;14.40;96.10
73939;DHT22;62291;47.554;8.504;2023-05-18T09:28:59;14.40;96.30
73939;DHT22;62291;47.554;8.504;2023-05-18T09:31:24;14.50;96.60
73939;DHT22;62291;47.554;8.504;2023-05-18T09:33:51;14.80;96.50
73939;DHT22;62291;47.554;8.504;2023-05-18T09:36:22;14.90;96.10
73939;DHT22;62291;47.554;8.504;2023-05-18T09:38:48;14.90;95.90
73939;DHT22;62291;47.554;8.504;2023-05-18T09:41:16;14.90;96.50
73939;DHT22;62291;47.554;8.504;2023-05-18T09:43:44;14.90;96.30
73939;DHT22;62291;47.554;8.504;2023-05-18T09:46:11;14.90;96.00
73939;DHT22;62291;47.554;8.504;2023-05-18T09:48:40;14.90;96.40
73939;DHT22;62291;47.554;8.504;2023-05-18T09:51:06;14.90;96.30
73939;DHT22;62291;47.554;8.504;2023-05-18T09:53:33;15.00;95.60
73939;DHT22;62291;47.554;8.504;2023-05-18T09:56:00;15.10;96.20
73939;DHT22;62291;47.554;8.504;2023-05-18T09:58:31;15.00;96.50
73939;DHT22;62291;47.554;8.504;2023-05-18T10:00:59;15.10;95.70
73939;DHT22;62291;47.554;8.504;2023-05-18T10:03:25;14.90;96.40
73939;DHT22;62291;47.554;8.504;2023-05-18T10:05:59;14.80;96.40
73939;DHT22;62291;47.554;8.504;2023-05-18T10:08:25;14.90;96.40
73939;DHT22;62291;47.554;8.504;2023-05-18T10:10:50;15.10;96.20
73939;DHT22;62291;47.554;8.504;2023-05-18T10:13:16;15.20;97.20
73939;DHT22;62291;47.554;8.504;2023-05-18T10:15:48;15.10;97.20
73939;DHT22;62291;47.554;8.504;2023-05-18T10:18:16;15.20;97.10
73939;DHT22;62291;47.554;8.504;2023-05-18T10:20:44;15.30;96.90
73939;DHT22;62291;47.554;8.504;2023-05-18T10:23:11;15.40;96.50
73939;DHT22;62291;47.554;8.504;2023-05-18T10:25:36;15.50;97.60
73939;DHT22;62291;47.554;8.504;2023-05-18T10:28:05;15.50;96.10
73939;DHT22;62291;47.554;8.504;2023-05-18T10:30:31;15.60;96.50
73939;DHT22;62291;47.554;8.504;2023-05-18T10:32:56;15.50;96.60
73939;DHT22;62291;47.554;8.504;2023-05-18T10:35:23;15.50;96.30
73939;DHT22;62291;47.554;8.504;2023-05-18T10:37:52;15.60;97.10
73939;DHT22;62291;47.554;8.504;2023-05-18T10:40:19;15.50;96.00
73939;DHT22;62291;47.554;8.504;2023-05-18T10:42:45;15.30;96.80
73939;DHT22;62291;47.554;8.504;2023-05-18T10:45:11;15.30;97.60
73939;DHT22;62291;47.554;8.504;2023-05-18T10:47:36;15.30;96.60
73939;DHT22;62291;47.554;8.504;2023-05-18T10:50:04;15.30;96.50
73939;DHT22;62291;47.554;8.504;2023-05-18T10:52:30;15.40;97.00
73939;DHT22;62291;47.554;8.504;2023-05-18T10:54:59;15.30;96.20
73939;DHT22;62291;47.554;8.504;2023-05-18T10:57:25;15.30;97.20
73939;DHT22;62291;47.554;8.504;2023-05-18T10:59:53;15.40;97.70
73939;DHT22;62291;47.554;8.504;2023-05-18T11:02:19;15.70;96.90
73939;DHT22;62291;47.554;8.504;2023-05-18T11:04:45;16.00;96.30
73939;DHT22;62291;47.554;8.504;2023-05-18T11:07:11;16.30;95.90
73939;DHT22;62291;47.554;8.504;2023-05-18T11:09:41;16.50;96.30
73939;DHT22;62291;47.554;8.504;2023-05-18T11:12:13;16.60;94.70
73939;DHT22;62291;47.554;8.504;2023-05-18T11:14:47;16.60;94.60
73939;DHT22;62291;47.554;8.504;2023-05-18T11:17:16;16.60;94.20
73939;DHT22;62291;47.554;8.504;2023-05-18T11:22:48;16.80;94.90
73939;DHT22;62291;47.554;8.504;2023-05-18T11:27:50;16.90;94.20
73939;DHT22;62291;47.554;8.504;2023-05-18T11:30:25;16.90;94.50
73939;DHT22;62291;47.554;8.504;2023-05-18T11:32:51;16.90;95.60
73939;DHT22;62291;47.554;8.504;2023-05-18T11:35:21;17.00;94.30
73939;DHT22;62291;47.554;8.504;2023-05-18T11:37:48;17.00;93.80
73939;DHT22;62291;47.554;8.504;2023-05-18T11:40:59;17.00;94.70
73939;DHT22;62291;47.554;8.504;2023-05-18T11:42:59;17.10;94.70
73939;DHT22;62291;47.554;8.504;2023-05-18T11:45:25;16.90;94.00
73939;DHT22;62291;47.554;8.504;2023-05-18T11:47:54;16.90;95.20
73939;DHT22;62291;47.554;8.504;2023-05-18T11:50:20;16.90;96.50
73939;DHT22;62291;47.554;8.504;2023-05-18T11:52:46;16.80;94.70
73939;DHT22;62291;47.554;8.504;2023-05-18T11:55:16;16.70;93.90
73939;DHT22;62291;47.554;8.504;2023-05-18T11:57:42;16.70;94.50
73939;DHT22;62291;47.554;8.504;2023-05-18T12:00:09;16.70;94.10
73939;DHT22;62291;47.554;8.504;2023-05-18T12:02:36;16.70;94.80
73939;DHT22;62291;47.554;8.504;2023-05-18T12:05:06;16.70;95.30
73939;DHT22;62291;47.554;8.504;2023-05-18T12:07:32;16.70;95.50
73939;DHT22;62291;47.554;8.504;2023-05-18T12:10:00;16.70;94.70
73939;DHT22;62291;47.554;8.504;2023-05-18T12:12:26;16.80;94.60
73939;DHT22;62291;47.554;8.504;2023-05-18T12:14:55;16.80;93.80
73939;DHT22;62291;47.554;8.504;2023-05-18T12:17:21;16.90;93.90
73939;DHT22;62291;47.554;8.504;2023-05-18T12:19:47;17.00;93.90
73939;DHT22;62291;47.554;8.504;2023-05-18T12:22:13;17.10;93.90
73939;DHT22;62291;47.554;8.504;2023-05-18T12:24:39;17.20;93.70
73939;DHT22;62291;47.554;8.504;2023-05-18T12:27:06;17.20;93.80
73939;DHT22;62291;47.554;8.504;2023-05-18T12:29:32;17.10;93.60
73939;DHT22;62291;47.554;8.504;2023-05-18T12:31:58;17.00;93.20
73939;DHT22;62291;47.554;8.504;2023-05-18T12:34:27;17.00;93.80
73939;DHT22;62291;47.554;8.504;2023-05-18T12:36:53;16.80;93.10
73939;DHT22;62291;47.554;8.504;2023-05-18T12:39:19;16.60;94.20
73939;DHT22;62291;47.554;8.504;2023-05-18T12:41:44;16.50;95.10
73939;DHT22;62291;47.554;8.504;2023-05-18T12:44:10;16.30;94.50
73939;DHT22;62291;47.554;8.504;2023-05-18T12:46:35;16.10;95.10
73939;DHT22;62291;47.554;8.504;2023-05-18T12:49:01;15.90;94.90
73939;DHT22;62291;47.554;8.504;2023-05-18T12:51:32;15.80;95.00
73939;DHT22;62291;47.554;8.504;2023-05-18T12:53:59;15.60;94.90
73939;DHT22;62291;47.554;8.504;2023-05-18T12:56:25;15.70;95.70
73939;DHT22;62291;47.554;8.504;2023-05-18T12:58:54;15.70;95.00
73939;DHT22;62291;47.554;8.504;2023-05-18T13:01:20;15.80;95.40
73939;DHT22;62291;47.554;8.504;2023-05-18T13:03:46;15.80;95.30
73939;DHT22;62291;47.554;8.504;2023-05-18T13:06:11;15.80;95.30
73939;DHT22;62291;47.554;8.504;2023-05-18T13:08:37;15.90;94.50
73939;DHT22;62291;47.554;8.504;2023-05-18T13:11:03;16.00;94.00
73939;DHT22;62291;47.554;8.504;2023-05-18T13:13:29;16.20;94.30
73939;DHT22;62291;47.554;8.504;2023-05-18T13:15:54;16.30;94.40
73939;DHT22;62291;47.554;8.504;2023-05-18T13:18:24;16.30;93.30
73939;DHT22;62291;47.554;8.504;2023-05-18T13:20:50;16.30;93.60
73939;DHT22;62291;47.554;8.504;2023-05-18T13:23:20;16.20;93.30
73939;DHT22;62291;47.554;8.504;2023-05-18T13:25:46;16.20;94.80
73939;DHT22;62291;47.554;8.504;2023-05-18T13:28:13;16.10;93.30
73939;DHT22;62291;47.554;8.504;2023-05-18T13:30:39;15.90;94.70
73939;DHT22;62291;47.554;8.504;2023-05-18T13:33:05;16.00;92.60
73939;DHT22;62291;47.554;8.504;2023-05-18T13:35:34;15.70;92.40
73939;DHT22;62291;47.554;8.504;2023-05-18T13:37:59;15.60;94.00
73939;DHT22;62291;47.554;8.504;2023-05-18T13:40:25;15.60;93.20
73939;DHT22;62291;47.554;8.504;2023-05-18T13:42:51;15.60;92.90
73939;DHT22;62291;47.554;8.504;2023-05-18T13:45:17;15.60;92.90
73939;DHT22;62291;47.554;8.504;2023-05-18T13:47:42;15.60;94.20
73939;DHT22;62291;47.554;8.504;2023-05-18T13:50:11;15.70;92.60
73939;DHT22;62291;47.554;8.504;2023-05-18T13:52:37;15.60;93.10
73939;DHT22;62291;47.554;8.504;2023-05-18T13:55:03;15.50;94.20
73939;DHT22;62291;47.554;8.504;2023-05-18T13:57:29;15.40;93.70
73939;DHT22;62291;47.554;8.504;2023-05-18T13:59:56;15.50;93.70
73939;DHT22;62291;47.554;8.504;2023-05-18T14:02:23;15.40;93.10
73939;DHT22;62291;47.554;8.504;2023-05-18T14:04:49;15.50;94.40
73939;DHT22;62291;47.554;8.504;2023-05-18T14:07:14;15.60;95.20
73939;DHT22;62291;47.554;8.504;2023-05-18T14:09:40;15.70;93.70
73939;DHT22;62291;47.554;8.504;2023-05-18T14:12:05;15.60;94.00
73939;DHT22;62291;47.554;8.504;2023-05-18T14:14:31;15.60;94.50
73939;DHT22;62291;47.554;8.504;2023-05-18T14:16:56;15.60;93.90
73939;DHT22;62291;47.554;8.504;2023-05-18T14:19:22;15.50;93.70
73939;DHT22;62291;47.554;8.504;2023-05-18T14:21:47;15.40;94.70
73939;DHT22;62291;47.554;8.504;2023-05-18T14:24:13;15.50;94.90
73939;DHT22;62291;47.554;8.504;2023-05-18T14:26:39;15.50;94.50
73939;DHT22;62291;47.554;8.504;2023-05-18T14:29:05;15.50;94.40
73939;DHT22;62291;47.554;8.504;2023-05-18T14:31:31;15.40;94.70
73939;DHT22;62291;47.554;8.504;2023-05-18T14:33:56;15.60;95.30
73939;DHT22;62291;47.554;8.504;2023-05-18T14:36:22;15.70;94.60
73939;DHT22;62291;47.554;8.504;2023-05-18T14:38:47;15.60;93.60
73939;DHT22;62291;47.554;8.504;2023-05-18T14:41:13;15.60;95.90
73939;DHT22;62291;47.554;8.504;2023-05-18T14:43:39;15.60;93.90
73939;DHT22;62291;47.554;8.504;2023-05-18T14:46:05;15.60;94.60
73939;DHT22;62291;47.554;8.504;2023-05-18T14:48:30;15.70;95.00
73939;DHT22;62291;47.554;8.504;2023-05-18T14:50:56;15.40;94.10
73939;DHT22;62291;47.554;8.504;2023-05-18T14:53:21;15.40;93.70
73939;DHT22;62291;47.554;8.504;2023-05-18T14:55:47;15.30;94.50
73939;DHT22;62291;47.554;8.504;2023-05-18T14:58:12;15.30;93.90
73939;DHT22;62291;47.554;8.504;2023-05-18T15:00:39;15.30;95.10
73939;DHT22;62291;47.554;8.504;2023-05-18T15:03:05;15.40;95.00
73939;DHT22;62291;47.554;8.504;2023-05-18T15:05:31;15.40;95.10
73939;DHT22;62291;47.554;8.504;2023-05-18T15:07:56;15.30;94.20
73939;DHT22;62291;47.554;8.504;2023-05-18T15:10:22;15.20;94.30
73939;DHT22;62291;47.554;8.504;2023-05-18T15:12:48;15.20;94.20
73939;DHT22;62291;47.554;8.504;2023-05-18T15:15:13;15.20;94.20
73939;DHT22;62291;47.554;8.504;2023-05-18T15:17:39;15.20;94.20
73939;DHT22;62291;47.554;8.504;2023-05-18T15:20:05;15.20;93.90
73939;DHT22;62291;47.554;8.504;2023-05-18T15:22:30;15.30;95.40
73939;DHT22;62291;47.554;8.504;2023-05-18T15:25:00;15.20;94.40
73939;DHT22;62291;47.554;8.504;2023-05-18T15:27:25;15.10;95.00
73939;DHT22;62291;47.554;8.504;2023-05-18T15:29:51;15.10;95.50
73939;DHT22;62291;47.554;8.504;2023-05-18T15:32:17;15.20;95.00
73939;DHT22;62291;47.554;8.504;2023-05-18T15:34:42;15.10;94.50
73939;DHT22;62291;47.554;8.504;2023-05-18T15:37:08;15.10;94.50
73939;DHT22;62291;47.554;8.504;2023-05-18T15:39:35;15.20;94.50
73939;DHT22;62291;47.554;8.504;2023-05-18T15:42:01;15.10;94.70
73939;DHT22;62291;47.554;8.504;2023-05-18T15:44:29;15.10;94.70
73939;DHT22;62291;47.554;8.504;2023-05-18T15:46:55;15.00;94.40
73939;DHT22;62291;47.554;8.504;2023-05-18T15:49:20;14.90;94.70